createdAt,value
2018-07-11T00:02:08.013Z,99757.00
2018-07-11T00:04:37.955Z,99757.00
2018-07-11T00:07:08.288Z,99756.00
2018-07-11T00:09:38.257Z,99753.00
2018-07-11T00:12:08.296Z,99752.00
2018-07-11T00:14:38.227Z,99754.00
2018-07-11T00:17:13.603Z,99754.00
2018-07-11T00:19:44.474Z,99760.00
2018-07-11T00:22:15.056Z,99760.00
2018-07-11T00:24:45.626Z,99759.00
2018-07-11T00:27:16.580Z,99760.00
2018-07-11T00:29:46.812Z,99758.00
2018-07-11T00:32:16.756Z,99761.00
2018-07-11T00:34:46.701Z,99767.00
2018-07-11T00:37:16.847Z,99773.00
2018-07-11T00:39:46.688Z,99767.00
2018-07-11T00:42:16.653Z,99765.00
2018-07-11T00:44:46.591Z,99765.00
2018-07-11T00:47:16.290Z,99765.00
2018-07-11T00:49:46.875Z,99759.00
2018-07-11T00:52:16.838Z,99757.00
2018-07-11T00:54:46.768Z,99762.00
2018-07-11T00:57:17.832Z,99763.00
2018-07-11T00:59:47.772Z,99762.00
2018-07-11T01:02:17.731Z,99765.00
2018-07-11T01:04:47.675Z,99761.00
2018-07-11T01:07:17.707Z,99767.00
2018-07-11T01:09:49.640Z,99769.00
2018-07-11T01:12:20.306Z,99764.00
2018-07-11T01:14:50.228Z,99763.00
2018-07-11T01:17:25.679Z,99767.00
2018-07-11T01:19:56.334Z,99779.00
2018-07-11T01:22:26.384Z,99779.00
2018-07-11T01:24:56.379Z,99780.00
2018-07-11T01:27:26.328Z,99781.00
2018-07-11T01:29:56.272Z,99779.00
2018-07-11T01:32:26.244Z,99775.00
2018-07-11T01:34:56.177Z,99780.00
2018-07-11T01:37:26.126Z,99780.00
2018-07-11T01:39:56.057Z,99776.00
2018-07-11T01:42:26.167Z,99780.00
2018-07-11T01:44:56.113Z,99777.00
2018-07-11T01:47:26.060Z,99776.00
2018-07-11T01:49:56.002Z,99774.00
2018-07-11T01:52:43.807Z,99771.00
2018-07-11T01:55:13.743Z,99770.00
2018-07-11T01:57:43.702Z,99772.00
2018-07-11T02:00:13.685Z,99775.00
2018-07-11T02:02:43.746Z,99772.00
2018-07-11T02:05:13.688Z,99777.00
2018-07-11T02:07:44.350Z,99779.00
2018-07-11T02:10:14.764Z,99780.00
2018-07-11T02:12:44.711Z,99782.00
2018-07-11T02:15:15.161Z,99783.00
2018-07-11T02:17:45.584Z,99787.00
2018-07-11T02:20:17.832Z,99784.00
2018-07-11T02:22:52.176Z,99793.00
2018-07-11T02:25:22.247Z,99788.00
2018-07-11T02:27:53.282Z,99790.00
2018-07-11T02:30:23.516Z,99791.00
2018-07-11T02:32:53.476Z,99787.00
2018-07-11T02:35:23.432Z,99779.00
2018-07-11T02:37:53.372Z,99775.00
2018-07-11T02:40:23.333Z,99773.00
2018-07-11T02:42:53.344Z,99774.00
2018-07-11T02:45:23.297Z,99777.00
2018-07-11T02:47:53.236Z,99775.00
2018-07-11T02:50:23.297Z,99784.00
2018-07-11T02:52:53.238Z,99782.00
2018-07-11T02:55:23.190Z,99782.00
2018-07-11T02:57:53.183Z,99782.00
2018-07-11T03:00:23.144Z,99781.00
2018-07-11T03:02:53.196Z,99778.00
2018-07-11T03:05:23.163Z,99780.00
2018-07-11T03:07:53.109Z,99789.00
2018-07-11T03:10:23.068Z,99781.00
2018-07-11T03:12:52.999Z,99782.00
2018-07-11T03:15:23.008Z,99789.00
2018-07-11T03:17:53.005Z,99788.00
2018-07-11T03:20:22.964Z,99791.00
2018-07-11T03:22:52.941Z,99795.00
2018-07-11T03:25:22.921Z,99804.00
2018-07-11T03:27:52.932Z,99793.00
2018-07-11T03:30:22.880Z,99799.00
2018-07-11T03:32:52.896Z,99802.00
2018-07-11T03:35:22.999Z,99803.00
2018-07-11T03:37:52.937Z,99806.00
2018-07-11T03:40:22.996Z,99802.00
2018-07-11T03:42:52.952Z,99800.00
2018-07-11T03:45:22.903Z,99802.00
2018-07-11T03:47:52.848Z,99801.00
2018-07-11T03:50:22.819Z,99804.00
2018-07-11T03:52:52.837Z,99806.00
2018-07-11T03:55:22.768Z,99805.00
2018-07-11T03:57:52.728Z,99811.00
2018-07-11T04:00:25.614Z,99803.00
2018-07-11T04:02:56.516Z,99800.00
2018-07-11T04:05:26.227Z,99801.00
2018-07-11T04:07:56.028Z,99804.00
2018-07-11T04:10:26.020Z,99807.00
2018-07-11T04:13:01.645Z,99810.00
2018-07-11T04:15:31.601Z,99811.00
2018-07-11T04:18:01.568Z,99809.00
2018-07-11T04:20:31.532Z,99812.00
2018-07-11T04:23:01.263Z,99816.00
2018-07-11T04:25:31.129Z,99820.00
2018-07-11T04:28:01.092Z,99818.00
2018-07-11T04:30:31.059Z,99819.00
2018-07-11T04:33:01.015Z,99814.00
2018-07-11T04:35:30.992Z,99820.00
2018-07-11T04:38:00.980Z,99818.00
2018-07-11T04:40:30.957Z,99817.00
2018-07-11T04:43:00.948Z,99817.00
2018-07-11T04:45:31.099Z,99822.00
2018-07-11T04:48:01.055Z,99821.00
2018-07-11T04:50:31.196Z,99825.00
2018-07-11T04:53:02.969Z,99822.00
2018-07-11T04:55:32.923Z,99816.00
2018-07-11T04:58:02.880Z,99813.00
2018-07-11T05:00:33.623Z,99815.00
2018-07-11T05:03:03.646Z,99820.00
2018-07-11T05:05:33.664Z,99827.00
2018-07-11T05:08:03.603Z,99828.00
2018-07-11T05:10:33.319Z,99828.00
2018-07-11T05:13:03.144Z,99832.00
2018-07-11T05:15:33.104Z,99826.00
2018-07-11T05:18:03.046Z,99824.00
2018-07-11T05:20:32.999Z,99823.00
2018-07-11T05:23:03.269Z,99825.00
2018-07-11T05:25:33.340Z,99828.00
2018-07-11T05:28:03.288Z,99829.00
2018-07-11T05:30:33.532Z,99827.00
2018-07-11T05:33:03.592Z,99828.00
2018-07-11T05:35:33.636Z,99827.00
2018-07-11T05:38:03.693Z,99835.00
2018-07-11T05:40:33.700Z,99825.00
2018-07-11T05:43:03.645Z,99831.00
2018-07-11T05:45:33.604Z,99831.00
2018-07-11T05:48:03.588Z,99834.00
2018-07-11T05:50:33.539Z,99839.00
2018-07-11T05:53:03.492Z,99838.00
2018-07-11T05:55:33.448Z,99843.00
2018-07-11T05:58:03.408Z,99845.00
2018-07-11T06:00:33.379Z,99845.00
2018-07-11T06:03:03.433Z,99839.00
2018-07-11T06:05:33.399Z,99846.00
2018-07-11T06:08:03.378Z,99840.00
2018-07-11T06:10:33.435Z,99844.00
2018-07-11T06:13:03.345Z,99839.00
2018-07-11T06:15:33.320Z,99835.00
2018-07-11T06:18:03.276Z,99838.00
2018-07-11T06:20:33.243Z,99841.00
2018-07-11T06:23:03.277Z,99839.00
2018-07-11T06:25:33.240Z,99837.00
2018-07-11T06:28:03.262Z,99845.00
2018-07-11T06:30:33.282Z,99842.00
2018-07-11T06:33:03.236Z,99840.00
2018-07-11T06:35:33.188Z,99839.00
2018-07-11T06:38:03.152Z,99843.00
2018-07-11T06:40:33.115Z,99847.00
2018-07-11T06:43:03.092Z,99852.00
2018-07-11T06:45:33.109Z,99847.00
2018-07-11T06:48:03.103Z,99849.00
2018-07-11T06:50:33.024Z,99854.00
2018-07-11T06:53:03.000Z,99860.00
2018-07-11T06:55:32.950Z,99861.00
2018-07-11T06:58:02.910Z,99861.00
2018-07-11T07:00:32.953Z,99870.00
2018-07-11T07:03:02.916Z,99864.00
2018-07-11T07:05:32.896Z,99869.00
2018-07-11T07:08:02.843Z,99875.00
2018-07-11T07:10:32.781Z,99875.00
2018-07-11T07:13:02.739Z,99873.00
2018-07-11T07:15:32.883Z,99871.00
2018-07-11T07:18:09.660Z,99866.00
2018-07-11T07:20:39.613Z,99860.00
2018-07-11T07:23:09.617Z,99853.00
2018-07-11T07:25:39.563Z,99850.00
2018-07-11T07:28:09.885Z,99859.00
2018-07-11T07:30:39.825Z,99860.00
2018-07-11T07:33:09.793Z,99860.00
2018-07-11T07:35:39.739Z,99864.00
2018-07-11T07:38:09.766Z,99867.00
2018-07-11T07:40:39.696Z,99853.00
2018-07-11T07:43:09.756Z,99848.00
2018-07-11T07:45:40.584Z,99838.00
2018-07-11T07:48:10.543Z,99835.00
2018-07-11T07:50:40.484Z,99833.00
2018-07-11T07:53:10.544Z,99834.00
2018-07-11T07:55:40.588Z,99827.00
2018-07-11T07:58:10.543Z,99830.00
2018-07-11T08:00:40.668Z,99829.00
2018-07-11T08:03:10.646Z,99826.00
2018-07-11T08:05:40.679Z,99827.00
2018-07-11T08:08:10.383Z,99821.00
2018-07-11T08:10:40.213Z,99821.00
2018-07-11T08:13:10.288Z,99821.00
2018-07-11T08:15:40.232Z,99823.00
2018-07-11T08:18:10.177Z,99825.00
2018-07-11T08:20:40.121Z,99826.00
2018-07-11T08:23:32.632Z,99821.00
2018-07-11T08:26:20.000Z,99814.00
2018-07-11T08:29:18.732Z,99818.00
2018-07-11T08:32:37.695Z,99830.00
2018-07-11T08:35:31.351Z,99835.00
2018-07-11T08:42:34.468Z,99841.00
2018-07-11T08:46:28.153Z,99860.00
2018-07-11T08:50:36.208Z,99855.00
2018-07-11T08:53:25.181Z,99852.00
2018-07-11T08:56:48.768Z,99853.00
2018-07-11T08:59:43.122Z,99851.00
2018-07-11T09:02:35.701Z,99856.00
2018-07-11T09:05:25.298Z,99850.00
2018-07-11T09:08:47.924Z,99852.00
2018-07-11T09:14:38.944Z,99857.00
2018-07-11T09:19:35.671Z,99844.00
2018-07-11T09:22:23.543Z,99861.00
2018-07-11T09:24:53.589Z,99865.00
2018-07-11T09:27:23.540Z,99856.00
2018-07-11T09:29:53.624Z,99853.00
2018-07-11T09:32:23.565Z,99862.00
2018-07-11T09:34:53.300Z,99865.00
2018-07-11T09:37:23.154Z,99860.00
2018-07-11T09:39:53.108Z,99869.00
2018-07-11T09:42:23.132Z,99864.00
2018-07-11T09:44:53.064Z,99861.00
2018-07-11T09:47:28.885Z,99860.00
2018-07-11T09:49:58.862Z,99853.00
2018-07-11T09:52:28.797Z,99858.00
2018-07-11T09:54:58.732Z,99860.00
2018-07-11T09:57:28.995Z,99862.00
2018-07-11T09:59:59.122Z,99863.00
2018-07-11T10:02:29.246Z,99862.00
2018-07-11T10:04:59.304Z,99864.00
2018-07-11T10:07:29.298Z,99869.00
2018-07-11T10:09:59.328Z,99874.00
2018-07-11T10:12:29.375Z,99869.00
2018-07-11T10:14:59.302Z,99864.00
2018-07-11T10:17:29.284Z,99867.00
2018-07-11T10:19:59.362Z,99866.00
2018-07-11T10:22:29.346Z,99866.00
2018-07-11T10:24:59.400Z,99866.00
2018-07-11T10:27:29.535Z,99869.00
2018-07-11T10:29:59.515Z,99868.00
2018-07-11T10:32:29.511Z,99865.00
2018-07-11T10:34:59.585Z,99860.00
2018-07-11T10:37:29.273Z,99864.00
2018-07-11T10:39:59.100Z,99868.00
2018-07-11T10:42:29.540Z,99863.00
2018-07-11T10:44:59.488Z,99865.00
2018-07-11T10:47:29.433Z,99865.00
2018-07-11T10:49:59.406Z,99859.00
2018-07-11T10:52:29.331Z,99854.00
2018-07-11T10:54:59.287Z,99848.00
2018-07-11T10:57:29.231Z,99851.00
2018-07-11T10:59:59.284Z,99842.00
2018-07-11T11:02:29.220Z,99845.00
2018-07-11T11:04:59.160Z,99844.00
2018-07-11T11:07:29.100Z,99848.00
2018-07-11T11:09:59.040Z,99851.00
2018-07-11T11:12:28.984Z,99866.00
2018-07-11T11:14:58.936Z,99858.00
2018-07-11T11:17:28.892Z,99860.00
2018-07-11T11:19:58.916Z,99868.00
2018-07-11T11:22:28.840Z,99860.00
2018-07-11T11:24:58.870Z,99866.00
2018-07-11T11:27:28.804Z,99860.00
2018-07-11T11:29:58.760Z,99864.00
2018-07-11T11:32:28.812Z,99866.00
2018-07-11T11:34:59.141Z,99869.00
2018-07-11T11:37:29.097Z,99869.00
2018-07-11T11:39:59.044Z,99862.00
2018-07-11T11:42:29.169Z,99859.00
2018-07-11T11:44:59.021Z,99857.00
2018-07-11T11:47:29.136Z,99857.00
2018-07-11T11:49:59.105Z,99853.00
2018-07-11T11:52:29.031Z,99851.00
2018-07-11T11:54:58.986Z,99848.00
2018-07-11T11:57:28.924Z,99854.00
2018-07-11T11:59:58.875Z,99852.00
2018-07-11T12:02:28.820Z,99849.00
2018-07-11T12:04:58.840Z,99846.00
2018-07-11T12:07:28.772Z,99846.00
2018-07-11T12:09:58.733Z,99845.00
2018-07-11T12:12:28.779Z,99850.00
2018-07-11T12:14:58.755Z,99851.00
2018-07-11T12:17:28.711Z,99851.00
2018-07-11T12:19:58.667Z,99849.00
2018-07-11T12:22:28.618Z,99845.00
2018-07-11T12:24:58.620Z,99845.00
2018-07-11T12:27:28.569Z,99846.00
2018-07-11T12:29:58.491Z,99843.00
2018-07-11T12:32:28.443Z,99842.00
2018-07-11T12:34:58.399Z,99836.00
2018-07-11T12:37:28.371Z,99832.00
2018-07-11T12:39:58.306Z,99834.00
2018-07-11T12:42:28.267Z,99828.00
2018-07-11T12:44:58.227Z,99818.00
2018-07-11T12:47:33.528Z,99813.00
2018-07-11T12:50:03.564Z,99819.00
2018-07-11T12:52:33.525Z,99815.00
2018-07-11T12:55:03.331Z,99816.00
2018-07-11T12:57:33.193Z,99811.00
2018-07-11T13:00:03.269Z,99811.00
2018-07-11T13:02:34.232Z,99804.00
2018-07-11T13:05:04.245Z,99815.00
2018-07-11T13:07:34.380Z,99809.00
2018-07-11T13:10:04.385Z,99812.00
2018-07-11T13:12:34.398Z,99815.00
2018-07-11T13:15:04.435Z,99809.00
2018-07-11T13:17:34.387Z,99810.00
2018-07-11T13:20:04.356Z,99813.00
2018-07-11T13:22:34.380Z,99811.00
2018-07-11T13:25:04.355Z,99802.00
2018-07-11T13:27:34.315Z,99797.00
2018-07-11T13:30:04.564Z,99804.00
2018-07-11T13:32:34.588Z,99801.00
2018-07-11T13:35:04.539Z,99802.00
2018-07-11T13:37:34.588Z,99805.00
2018-07-11T13:40:04.608Z,99807.00
2018-07-11T13:42:34.575Z,99814.00
2018-07-11T13:45:04.587Z,99816.00
2018-07-11T13:47:34.556Z,99810.00
2018-07-11T13:50:04.671Z,99819.00
2018-07-11T13:52:34.619Z,99825.00
2018-07-11T13:55:04.693Z,99825.00
2018-07-11T13:57:34.640Z,99830.00
2018-07-11T14:00:04.646Z,99821.00
2018-07-11T14:02:34.600Z,99822.00
2018-07-11T14:05:04.559Z,99824.00
2018-07-11T14:07:34.536Z,99823.00
2018-07-11T14:10:04.571Z,99828.00
2018-07-11T14:12:34.600Z,99826.00
2018-07-11T14:15:04.566Z,99829.00
2018-07-11T14:17:34.864Z,99827.00
2018-07-11T14:20:06.141Z,99828.00
2018-07-11T14:22:36.276Z,99826.00
2018-07-11T14:25:06.252Z,99826.00
2018-07-11T14:27:46.046Z,99824.00
2018-07-11T14:30:15.914Z,99825.00
2018-07-11T14:33:18.165Z,99828.00
2018-07-11T14:35:48.154Z,99825.00
2018-07-11T14:38:18.144Z,99827.00
2018-07-11T14:40:48.214Z,99821.00
2018-07-11T14:43:18.401Z,99818.00
2018-07-11T14:45:53.971Z,99824.00
2018-07-11T14:48:24.012Z,99831.00
2018-07-11T14:50:54.032Z,99826.00
2018-07-11T14:53:24.019Z,99826.00
2018-07-11T14:55:53.987Z,99830.00
2018-07-11T14:58:23.953Z,99829.00
2018-07-11T15:00:53.932Z,99824.00
2018-07-11T15:03:23.935Z,99824.00
2018-07-11T15:05:53.928Z,99824.00
2018-07-11T15:08:24.260Z,99823.00
2018-07-11T15:10:54.179Z,99823.00
2018-07-11T15:13:24.621Z,99827.00
2018-07-11T15:15:54.318Z,99834.00
2018-07-11T15:18:24.328Z,99834.00
2018-07-11T15:20:54.946Z,99836.00
2018-07-11T15:23:24.937Z,99833.00
2018-07-11T15:25:54.864Z,99836.00
2018-07-11T15:28:24.896Z,99832.00
2018-07-11T15:30:54.871Z,99827.00
2018-07-11T15:33:25.719Z,99830.00
2018-07-11T15:35:55.680Z,99828.00
2018-07-11T15:38:26.701Z,99825.00
2018-07-11T15:40:59.080Z,99825.00
2018-07-11T15:43:31.245Z,99824.00
2018-07-11T15:46:01.292Z,99829.00
2018-07-11T15:48:31.382Z,99831.00
2018-07-11T15:51:01.469Z,99835.00
2018-07-11T15:53:31.547Z,99838.00
2018-07-11T15:56:01.481Z,99833.00
2018-07-11T15:58:35.267Z,99837.00
2018-07-11T16:01:07.581Z,99837.00
2018-07-11T16:03:43.071Z,99840.00
2018-07-11T16:06:12.980Z,99847.00
2018-07-11T16:08:47.761Z,99851.00
2018-07-11T16:11:17.965Z,99848.00
2018-07-11T16:13:47.904Z,99839.00
2018-07-11T16:16:17.879Z,99841.00
2018-07-11T16:18:47.892Z,99841.00
2018-07-11T16:21:17.828Z,99844.00
2018-07-11T16:23:48.165Z,99839.00
2018-07-11T16:26:18.180Z,99838.00
2018-07-11T16:28:48.128Z,99835.00
2018-07-11T16:31:18.092Z,99833.00
2018-07-11T16:33:48.115Z,99831.00
2018-07-11T16:36:18.178Z,99833.00
2018-07-11T16:38:48.797Z,99831.00
2018-07-11T16:41:18.762Z,99831.00
2018-07-11T16:43:48.883Z,99829.00
2018-07-11T16:46:18.948Z,99829.00
2018-07-11T16:48:48.903Z,99835.00
2018-07-11T16:51:18.843Z,99832.00
2018-07-11T16:53:48.797Z,99824.00
2018-07-11T16:56:18.726Z,99828.00
2018-07-11T16:58:54.080Z,99831.00
2018-07-11T17:01:30.562Z,99830.00
2018-07-11T17:04:03.608Z,99829.00
2018-07-11T17:06:33.524Z,99831.00
2018-07-11T17:09:03.678Z,99831.00
2018-07-11T17:11:33.666Z,99834.00
2018-07-11T17:14:04.695Z,99833.00
2018-07-11T17:16:44.344Z,99832.00
2018-07-11T17:19:27.752Z,99833.00
2018-07-11T17:21:59.473Z,99828.00
2018-07-11T17:24:30.140Z,99825.00
2018-07-11T17:27:00.244Z,99820.00
2018-07-11T17:29:31.152Z,99827.00
2018-07-11T17:32:07.130Z,99830.00
2018-07-11T17:34:37.989Z,99829.00
2018-07-11T17:37:10.324Z,99829.00
2018-07-11T17:39:53.825Z,99826.00
2018-07-11T17:42:27.020Z,99827.00
2018-07-11T17:45:11.684Z,99829.00
2018-07-11T17:48:09.267Z,99827.00
2018-07-11T17:50:39.220Z,99832.00
2018-07-11T17:53:14.240Z,99833.00
2018-07-11T17:55:54.737Z,99830.00
2018-07-11T17:58:39.250Z,99829.00
2018-07-11T18:01:09.621Z,99828.00
2018-07-11T18:04:03.042Z,99829.00
2018-07-11T18:06:45.620Z,99835.00
2018-07-11T18:09:16.569Z,99844.00
2018-07-11T18:11:54.881Z,99841.00
2018-07-11T18:15:43.512Z,99840.00
2018-07-11T18:18:31.054Z,99845.00
2018-07-11T18:21:17.198Z,99846.00
2018-07-11T18:24:05.259Z,99843.00
2018-07-11T18:28:53.474Z,99838.00
2018-07-11T18:31:37.672Z,99840.00
2018-07-11T18:34:23.406Z,99840.00
2018-07-11T18:37:25.175Z,99845.00
2018-07-11T18:40:01.382Z,99839.00
2018-07-11T18:42:45.328Z,99844.00
2018-07-11T18:45:31.140Z,99842.00
2018-07-11T18:49:20.176Z,99843.00
2018-07-11T18:52:29.011Z,99840.00
2018-07-11T18:55:18.597Z,99839.00
2018-07-11T18:58:03.300Z,99835.00
2018-07-11T19:00:47.688Z,99837.00
2018-07-11T19:03:32.368Z,99832.00
2018-07-11T19:06:46.328Z,99836.00
2018-07-11T19:09:37.945Z,99836.00
2018-07-11T19:12:25.590Z,99832.00
2018-07-11T19:15:14.782Z,99837.00
2018-07-11T19:19:10.181Z,99837.00
2018-07-11T19:21:54.673Z,99843.00
2018-07-11T19:26:52.338Z,99844.00
2018-07-11T19:29:40.613Z,99841.00
2018-07-11T19:32:26.930Z,99845.00
2018-07-11T19:35:08.516Z,99851.00
2018-07-11T19:37:53.520Z,99848.00
2018-07-11T19:41:24.118Z,99849.00
2018-07-11T19:44:26.333Z,99858.00
2018-07-11T19:47:15.860Z,99856.00
2018-07-11T19:50:34.775Z,99853.00
2018-07-11T19:53:17.952Z,99859.00
2018-07-11T19:56:06.707Z,99860.00
2018-07-11T19:58:36.722Z,99864.00
2018-07-11T20:01:06.914Z,99862.00
2018-07-11T20:03:36.855Z,99864.00
2018-07-11T20:06:06.931Z,99864.00
2018-07-11T20:08:37.096Z,99869.00
2018-07-11T20:11:07.442Z,99867.00
2018-07-11T20:13:37.785Z,99865.00
2018-07-11T20:16:07.728Z,99878.00
2018-07-11T20:18:37.679Z,99887.00
2018-07-11T20:21:07.620Z,99870.00
2018-07-11T20:23:37.576Z,99885.00
2018-07-11T20:26:07.753Z,99881.00
2018-07-11T20:28:37.716Z,99876.00
2018-07-11T20:31:07.684Z,99878.00
2018-07-11T20:33:37.665Z,99875.00
2018-07-11T20:36:07.897Z,99875.00
2018-07-11T20:38:38.449Z,99873.00
2018-07-11T20:41:09.088Z,99872.00
2018-07-11T20:43:39.476Z,99870.00
2018-07-11T20:46:10.312Z,99874.00
2018-07-11T20:48:40.563Z,99875.00
2018-07-11T20:51:10.512Z,99872.00
2018-07-11T20:53:40.472Z,99872.00
2018-07-11T20:56:10.399Z,99874.00
2018-07-11T20:58:57.253Z,99871.00
2018-07-11T21:01:44.749Z,99871.00
2018-07-11T21:06:40.059Z,99868.00
2018-07-11T21:09:28.201Z,99872.00
2018-07-11T21:14:16.572Z,99873.00
2018-07-11T21:17:01.436Z,99886.00
2018-07-11T21:19:31.396Z,99873.00
2018-07-11T21:22:01.353Z,99866.00
2018-07-11T21:24:31.292Z,99866.00
2018-07-11T21:27:01.235Z,99868.00
2018-07-11T21:29:31.186Z,99869.00
2018-07-11T21:32:01.148Z,99876.00
2018-07-11T21:34:31.092Z,99877.00
2018-07-11T21:37:01.452Z,99875.00
2018-07-11T21:39:31.412Z,99878.00
2018-07-11T21:42:01.382Z,99883.00
2018-07-11T21:44:31.341Z,99883.00
2018-07-11T21:47:01.648Z,99884.00
2018-07-11T21:49:31.589Z,99887.00
2018-07-11T21:52:01.544Z,99881.00
2018-07-11T21:54:31.512Z,99886.00
2018-07-11T21:57:01.652Z,99885.00
2018-07-11T21:59:31.647Z,99886.00
2018-07-11T22:02:01.619Z,99886.00
2018-07-11T22:04:31.584Z,99884.00
2018-07-11T22:07:01.805Z,99884.00
2018-07-11T22:09:31.764Z,99885.00
2018-07-11T22:12:01.790Z,99888.00
2018-07-11T22:14:31.722Z,99894.00
2018-07-11T22:17:17.468Z,99895.00
2018-07-11T22:19:45.916Z,99895.00
2018-07-11T22:22:15.911Z,99896.00
2018-07-11T22:24:44.611Z,99899.00
2018-07-11T22:27:13.080Z,99906.00
2018-07-11T22:29:41.536Z,99905.00
2018-07-11T22:32:09.968Z,99913.00
2018-07-11T22:34:38.411Z,99917.00
2018-07-11T22:37:06.866Z,99911.00
2018-07-11T22:39:35.307Z,99908.00
2018-07-11T22:42:03.748Z,99904.00
2018-07-11T22:44:32.212Z,99903.00
2018-07-11T22:47:00.894Z,99900.00
2018-07-11T22:49:29.340Z,99907.00
2018-07-11T22:51:57.786Z,99904.00
2018-07-11T22:54:26.245Z,99902.00
2018-07-11T22:56:54.684Z,99904.00
2018-07-11T22:59:23.144Z,99902.00
2018-07-11T23:01:51.583Z,99904.00
2018-07-11T23:04:20.076Z,99895.00
2018-07-11T23:06:48.475Z,99895.00
2018-07-11T23:09:16.940Z,99894.00
2018-07-11T23:11:46.207Z,99892.00
2018-07-11T23:14:14.672Z,99884.00
2018-07-11T23:16:43.117Z,99886.00
2018-07-11T23:19:11.633Z,99885.00
2018-07-11T23:21:40.500Z,99883.00
2018-07-11T23:24:08.974Z,99882.00
2018-07-11T23:26:37.433Z,99880.00
2018-07-11T23:29:06.148Z,99884.00
2018-07-11T23:31:34.456Z,99879.00
2018-07-11T23:34:02.912Z,99877.00
2018-07-11T23:36:31.569Z,99875.00
2018-07-11T23:39:01.587Z,99878.00
2018-07-11T23:41:30.034Z,99872.00
2018-07-11T23:43:58.487Z,99875.00
2018-07-11T23:46:27.096Z,99873.00
2018-07-11T23:48:55.665Z,99876.00
2018-07-11T23:51:24.124Z,99874.00
2018-07-11T23:53:52.708Z,99878.00
2018-07-11T23:56:21.169Z,99880.00
2018-07-11T23:58:49.616Z,99878.00
